Time;durP1;ratioP1;P1;durP2;ratioP2;P2;SDS_P1;SDS_P2;PMS_P1;PMS_P2;Temp;Humidity;BMP_temperature;BMP_pressure;BME280_temperature;BME280_humidity;BME280_pressure;Samples;Min_cycle;Max_cycle;Signal;HPM_P1;HPM_P2
2022/07/20 00:01:18;;;;;;;22.17;1.87;;;;;;;;;;5094539;28;20484;-67
2022/07/20 00:03:46;;;;;;;20.10;2.50;;;;;;;;;;5094572;28;20434;-67
2022/07/20 00:06:14;;;;;;;19.90;1.93;;;;;;;;;;5094510;28;20499;-67
2022/07/20 00:11:28;;;;;;;18.60;1.80;;;;;;;;;;5094773;28;20421;-67
2022/07/20 00:13:57;;;;;;;18.40;1.80;;;;;;;;;;5094368;28;20803;-67
2022/07/20 00:16:25;;;;;;;20.10;1.90;;;;;;;;;;5094503;28;20465;-67
2022/07/20 00:18:52;;;;;;;18.77;2.10;;;;;;;;;;5094912;28;20481;-67
2022/07/20 00:21:20;;;;;;;20.17;2.10;;;;;;;;;;5094163;28;20482;-67
2022/07/20 00:23:47;;;;;;;19.43;2.27;;;;;;;;;;5094275;28;20445;-67
2022/07/20 00:26:15;;;;;;;18.50;1.87;;;;;;;;;;5094126;28;20468;-67
2022/07/20 00:28:44;;;;;;;18.67;2.00;;;;;;;;;;5094087;28;20434;-68
2022/07/20 00:31:12;;;;;;;18.20;2.03;;;;;;;;;;5094450;28;20457;-67
2022/07/20 00:33:39;;;;;;;18.97;1.90;;;;;;;;;;5093991;28;20430;-67
2022/07/20 00:36:07;;;;;;;18.33;2.07;;;;;;;;;;5093916;28;20961;-67
2022/07/20 00:38:34;;;;;;;18.37;2.20;;;;;;;;;;5093788;28;20962;-67
2022/07/20 00:41:02;;;;;;;22.07;2.30;;;;;;;;;;5093795;28;20478;-67
2022/07/20 00:43:29;;;;;;;18.97;1.97;;;;;;;;;;5093806;28;20449;-67
2022/07/20 00:45:58;;;;;;;18.87;2.30;;;;;;;;;;5093732;28;20939;-67
2022/07/20 00:48:26;;;;;;;19.97;2.47;;;;;;;;;;5093635;28;20927;-67
2022/07/20 00:50:53;;;;;;;18.70;1.90;;;;;;;;;;5093850;28;20438;-67
2022/07/20 00:53:20;;;;;;;20.20;2.37;;;;;;;;;;5093210;28;20458;-67
2022/07/20 00:55:48;;;;;;;21.90;2.50;;;;;;;;;;5093481;28;20441;-67
2022/07/20 00:58:16;;;;;;;19.47;1.83;;;;;;;;;;5093927;28;20469;-67
2022/07/20 01:00:43;;;;;;;20.57;2.67;;;;;;;;;;5093771;28;20477;-67
2022/07/20 01:03:12;;;;;;;26.93;4.23;;;;;;;;;;5093471;28;20440;-67
2022/07/20 01:05:40;;;;;;;18.13;1.90;;;;;;;;;;5093744;28;20490;-68
2022/07/20 01:08:07;;;;;;;19.80;2.17;;;;;;;;;;5093128;28;20438;-67
2022/07/20 01:10:35;;;;;;;21.60;2.37;;;;;;;;;;5093378;28;20525;-67
2022/07/20 01:13:02;;;;;;;19.50;2.10;;;;;;;;;;5093689;28;20450;-67
2022/07/20 01:15:30;;;;;;;18.57;2.17;;;;;;;;;;5092896;28;20477;-67
2022/07/20 01:17:57;;;;;;;18.40;1.90;;;;;;;;;;5093425;28;20429;-67
2022/07/20 01:20:27;;;;;;;20.50;2.20;;;;;;;;;;5093110;28;20477;-67
2022/07/20 01:22:56;;;;;;;20.80;2.60;;;;;;;;;;5093205;28;20438;-67
2022/07/20 01:25:24;;;;;;;22.87;2.60;;;;;;;;;;5092976;28;20525;-67
2022/07/20 01:27:51;;;;;;;18.40;1.90;;;;;;;;;;5093145;28;20437;-67
2022/07/20 01:30:18;;;;;;;19.30;2.50;;;;;;;;;;5093304;28;20438;-67
2022/07/20 01:32:46;;;;;;;18.10;1.80;;;;;;;;;;5093003;28;20430;-67
2022/07/20 01:35:13;;;;;;;18.80;2.00;;;;;;;;;;5092745;28;20449;-67
2022/07/20 01:37:41;;;;;;;21.33;2.37;;;;;;;;;;5092998;28;20772;-67
2022/07/20 01:40:12;;;;;;;19.60;2.17;;;;;;;;;;5092680;28;21000;-67
2022/07/20 01:42:39;;;;;;;18.63;1.90;;;;;;;;;;5092885;28;20826;-67
2022/07/20 01:45:07;;;;;;;18.17;1.87;;;;;;;;;;5092704;28;20437;-67
2022/07/20 01:47:34;;;;;;;20.23;2.30;;;;;;;;;;5092412;28;20437;-67
2022/07/20 01:50:02;;;;;;;19.47;2.20;;;;;;;;;;5092703;28;20444;-67
2022/07/20 01:52:29;;;;;;;20.73;2.60;;;;;;;;;;5092429;28;20442;-67
2022/07/20 01:54:57;;;;;;;18.37;2.03;;;;;;;;;;5092760;28;20430;-67
2022/07/20 01:57:26;;;;;;;24.17;4.73;;;;;;;;;;5092560;28;20438;-67
2022/07/20 01:59:54;;;;;;;19.33;1.87;;;;;;;;;;5092734;28;20434;-67
2022/07/20 02:02:21;;;;;;;18.30;2.00;;;;;;;;;;5092543;28;20426;-67
2022/07/20 02:04:48;;;;;;;18.30;1.93;;;;;;;;;;5092417;28;20434;-67
2022/07/20 02:07:16;;;;;;;18.67;1.80;;;;;;;;;;5092625;28;20430;-67
2022/07/20 02:09:43;;;;;;;18.30;2.13;;;;;;;;;;5092508;28;20453;-67
2022/07/20 02:12:11;;;;;;;21.73;2.10;;;;;;;;;;5092659;28;20527;-67
2022/07/20 02:14:40;;;;;;;18.43;2.10;;;;;;;;;;5092432;28;20434;-67
2022/07/20 02:17:07;;;;;;;19.77;2.20;;;;;;;;;;5092484;28;20475;-67
2022/07/20 02:19:35;;;;;;;18.23;1.90;;;;;;;;;;5092610;28;20923;-67
2022/07/20 02:22:02;;;;;;;18.80;2.03;;;;;;;;;;5092338;28;20477;-67
2022/07/20 02:24:30;;;;;;;18.53;1.90;;;;;;;;;;5092288;28;20430;-67
2022/07/20 02:26:57;;;;;;;22.90;2.37;;;;;;;;;;5092217;28;20469;-67
2022/07/20 02:29:25;;;;;;;20.07;1.83;;;;;;;;;;5092222;28;20445;-67
2022/07/20 02:31:54;;;;;;;18.53;2.00;;;;;;;;;;5092143;28;20499;-67
2022/07/20 02:34:21;;;;;;;29.53;2.30;;;;;;;;;;5092081;28;20912;-67
2022/07/20 02:36:49;;;;;;;18.50;2.20;;;;;;;;;;5092747;28;20426;-66
2022/07/20 02:39:16;;;;;;;28.17;2.57;;;;;;;;;;5092127;28;20478;-67
2022/07/20 02:41:44;;;;;;;18.50;2.13;;;;;;;;;;5091991;28;20485;-67
2022/07/20 02:44:11;;;;;;;19.20;2.67;;;;;;;;;;5092038;28;20950;-67
2022/07/20 02:46:39;;;;;;;18.40;1.87;;;;;;;;;;5092000;28;20924;-67
2022/07/20 02:49:08;;;;;;;19.43;2.20;;;;;;;;;;5092401;28;20434;-67
2022/07/20 02:51:35;;;;;;;18.23;1.90;;;;;;;;;;5091998;28;20438;-66
2022/07/20 02:54:03;;;;;;;19.67;2.10;;;;;;;;;;5091894;28;20461;-67
2022/07/20 02:56:30;;;;;;;19.67;1.80;;;;;;;;;;5092095;28;20441;-67
2022/07/20 02:58:58;;;;;;;18.30;2.50;;;;;;;;;;5094493;28;20438;-67
2022/07/20 03:01:25;;;;;;;18.97;2.53;;;;;;;;;;5096002;28;20480;-67
2022/07/20 03:03:52;;;;;;;23.90;2.77;;;;;;;;;;5095955;28;20437;-67
2022/07/20 03:06:21;;;;;;;18.13;1.97;;;;;;;;;;5095958;28;20444;-67
2022/07/20 03:08:49;;;;;;;18.67;2.23;;;;;;;;;;5095659;28;20445;-67
2022/07/20 03:11:16;;;;;;;19.60;2.30;;;;;;;;;;5095694;28;20445;-67
2022/07/20 03:13:43;;;;;;;17.93;1.90;;;;;;;;;;5095509;28;20452;-67
2022/07/20 03:16:11;;;;;;;23.70;2.40;;;;;;;;;;5095420;28;20477;-67
2022/07/20 03:18:38;;;;;;;17.90;1.87;;;;;;;;;;5095545;28;20449;-67
2022/07/20 03:21:06;;;;;;;18.67;2.00;;;;;;;;;;5095803;28;20835;-67
2022/07/20 03:23:35;;;;;;;19.07;2.00;;;;;;;;;;5095443;28;20445;-67
2022/07/20 03:26:03;;;;;;;19.30;2.40;;;;;;;;;;5095479;28;20463;-67
2022/07/20 03:28:30;;;;;;;19.10;2.00;;;;;;;;;;5095274;28;20430;-67
2022/07/20 03:30:57;;;;;;;18.10;2.07;;;;;;;;;;5095248;28;20434;-67
2022/07/20 03:33:25;;;;;;;18.77;2.23;;;;;;;;;;5095137;28;20434;-67
2022/07/20 03:35:52;;;;;;;23.43;2.63;;;;;;;;;;5095174;28;20973;-67
2022/07/20 03:38:20;;;;;;;20.90;2.67;;;;;;;;;;5095280;28;20430;-67
2022/07/20 03:40:49;;;;;;;19.87;2.33;;;;;;;;;;5094986;28;20975;-67
2022/07/20 03:43:16;;;;;;;23.60;2.73;;;;;;;;;;5094909;28;20939;-67
2022/07/20 03:45:43;;;;;;;21.07;2.50;;;;;;;;;;5094950;28;20962;-68
2022/07/20 03:48:11;;;;;;;18.07;2.13;;;;;;;;;;5094963;28;20438;-68
2022/07/20 03:50:38;;;;;;;20.47;2.77;;;;;;;;;;5094867;28;20465;-67
2022/07/20 03:53:06;;;;;;;18.00;2.10;;;;;;;;;;5094192;28;20458;-68
2022/07/20 03:55:33;;;;;;;19.17;2.07;;;;;;;;;;5094836;28;20457;-67
2022/07/20 03:58:02;;;;;;;20.20;2.00;;;;;;;;;;5094647;28;20438;-66
2022/07/20 04:00:30;;;;;;;20.50;2.67;;;;;;;;;;5094909;28;20802;-66
2022/07/20 04:02:58;;;;;;;17.87;2.00;;;;;;;;;;5094454;28;20950;-67
2022/07/20 04:05:25;;;;;;;19.10;2.20;;;;;;;;;;5094572;28;20441;-68
2022/07/20 04:07:53;;;;;;;18.97;2.13;;;;;;;;;;5094833;28;20423;-67
2022/07/20 04:10:20;;;;;;;18.27;2.20;;;;;;;;;;5094371;28;20431;-67
2022/07/20 04:12:47;;;;;;;19.67;2.27;;;;;;;;;;5094502;28;20430;-68
2022/07/20 04:15:17;;;;;;;19.23;2.17;;;;;;;;;;5094417;28;20465;-67
2022/07/20 04:17:44;;;;;;;19.73;2.00;;;;;;;;;;5090990;28;20481;-68
2022/07/20 04:20:12;;;;;;;18.67;2.00;;;;;;;;;;5093585;28;20469;-68
2022/07/20 04:22:39;;;;;;;20.00;2.40;;;;;;;;;;5093595;28;20513;-68
2022/07/20 04:25:07;;;;;;;20.70;2.63;;;;;;;;;;5093686;28;20473;-69
2022/07/20 04:27:34;;;;;;;20.60;2.87;;;;;;;;;;5093436;28;20478;-68
2022/07/20 04:30:03;;;;;;;24.27;4.67;;;;;;;;;;5093542;28;20469;-68
2022/07/20 04:32:32;;;;;;;25.00;4.90;;;;;;;;;;5093337;28;21079;-67
2022/07/20 04:35:00;;;;;;;241.70;226.20;;;;;;;;;;5093817;28;20460;-70
2022/07/20 04:37:27;;;;;;;137.77;129.17;;;;;;;;;;5093619;28;20476;-71
2022/07/20 04:39:55;;;;;;;23.30;8.00;;;;;;;;;;5093455;28;20469;-71
